FIN4PR EFKT-EFHK
Flight info
| Callsign | FIN4PR |
|---|---|
| Flight time | N/A |
| Altitude | 35000 |
| Route | AMULU DCT OTVEM DCT IBOSU Y86 LUSEP |
| Aircraft | A320/M-SDE3FGHIRWY/LB1 |
Departure
| Time | 2026-05-01 12:11 |
|---|---|
| Airport | Kittilä International Airport (EFKT) |
Arrival
| Time | N/A |
|---|---|
| Airport | Helsinki Vantaa Airport (EFHK) |
| Time | Latitude | Longitude | Altitude | Speed | Heading |
|---|---|---|---|---|---|
| 2026-05-01 11:44 | 67.69544 | 24.85710 | 640 ft | 0 kts | 76° |
| 2026-05-01 11:57 | 67.69544 | 24.85709 | 640 ft | 0 kts | 76° |
| 2026-05-01 12:03 | 67.69544 | 24.85707 | 640 ft | 2 kts | 76° |
| 2026-05-01 12:03 | 67.69538 | 24.85644 | 640 ft | 4 kts | 76° |
| 2026-05-01 12:04 | 67.69532 | 24.85587 | 640 ft | 4 kts | 72° |
| 2026-05-01 12:04 | 67.69521 | 24.85537 | 644 ft | 4 kts | 14° |
| 2026-05-01 12:04 | 67.69498 | 24.85540 | 644 ft | 2 kts | 346° |
| 2026-05-01 12:04 | 67.69496 | 24.85541 | 644 ft | 0 kts | 346° |
| 2026-05-01 12:07 | 67.69511 | 24.85525 | 643 ft | 5 kts | 333° |
| 2026-05-01 12:07 | 67.69530 | 24.85445 | 639 ft | 6 kts | 285° |
| 2026-05-01 12:07 | 67.69518 | 24.85266 | 639 ft | 9 kts | 255° |
| 2026-05-01 12:07 | 67.69489 | 24.85116 | 642 ft | 10 kts | 217° |
| 2026-05-01 12:08 | 67.69425 | 24.85127 | 641 ft | 9 kts | 165° |
| 2026-05-01 12:08 | 67.69377 | 24.85160 | 643 ft | 12 kts | 165° |
| 2026-05-01 12:08 | 67.69285 | 24.85222 | 645 ft | 14 kts | 166° |
| 2026-05-01 12:08 | 67.69205 | 24.85274 | 648 ft | 11 kts | 166° |
| 2026-05-01 12:09 | 67.69118 | 24.85346 | 650 ft | 13 kts | 148° |
| 2026-05-01 12:09 | 67.69057 | 24.85475 | 652 ft | 9 kts | 167° |
| 2026-05-01 12:09 | 67.69038 | 24.85378 | 653 ft | 8 kts | 305° |
| 2026-05-01 12:09 | 67.69058 | 24.85359 | 652 ft | 0 kts | 343° |
| 2026-05-01 12:10 | 67.69836 | 24.84856 | 642 ft | 127 kts | 346° |
| 2026-05-01 12:10 | 67.70850 | 24.84230 | 807 ft | 160 kts | 341° |
| 2026-05-01 12:11 | 67.73071 | 24.83260 | 2125 ft | 168 kts | 341° |
| 2026-05-01 12:11 | 67.74114 | 24.81772 | 2492 ft | 179 kts | 306° |
| 2026-05-01 12:11 | 67.74572 | 24.78649 | 2825 ft | 197 kts | 268° |
| 2026-05-01 12:12 | 67.74056 | 24.75146 | 3252 ft | 223 kts | 230° |
| 2026-05-01 12:12 | 67.72819 | 24.72426 | 3950 ft | 237 kts | 221° |
| 2026-05-01 12:12 | 67.71448 | 24.69844 | 4773 ft | 246 kts | 219° |
| 2026-05-01 12:12 | 67.70023 | 24.67258 | 5660 ft | 251 kts | 219° |
| 2026-05-01 12:13 | 67.68570 | 24.64645 | 6549 ft | 256 kts | 217° |
| 2026-05-01 12:13 | 67.66900 | 24.62722 | 7273 ft | 271 kts | 204° |
| 2026-05-01 12:13 | 67.65095 | 24.61145 | 8114 ft | 276 kts | 202° |
| 2026-05-01 12:13 | 67.63267 | 24.59586 | 9051 ft | 277 kts | 202° |
| 2026-05-01 12:14 | 67.61427 | 24.58023 | 9978 ft | 279 kts | 203° |
| 2026-05-01 12:14 | 67.59520 | 24.56385 | 10365 ft | 300 kts | 203° |
| 2026-05-01 12:14 | 67.57481 | 24.54609 | 10853 ft | 314 kts | 203° |
| 2026-05-01 12:14 | 67.55386 | 24.52788 | 11604 ft | 319 kts | 203° |
| 2026-05-01 12:15 | 67.53261 | 24.50950 | 12392 ft | 323 kts | 204° |
| 2026-05-01 12:15 | 67.51117 | 24.49105 | 13188 ft | 326 kts | 204° |
| 2026-05-01 12:15 | 67.48947 | 24.47231 | 13948 ft | 330 kts | 204° |
| 2026-05-01 12:15 | 67.46755 | 24.45341 | 14611 ft | 334 kts | 204° |
| 2026-05-01 12:16 | 67.44527 | 24.43424 | 15267 ft | 338 kts | 205° |
| 2026-05-01 12:16 | 67.42277 | 24.41479 | 15930 ft | 342 kts | 205° |
| 2026-05-01 12:16 | 67.40005 | 24.39520 | 16590 ft | 346 kts | 205° |
| 2026-05-01 12:16 | 67.37638 | 24.37976 | 17218 ft | 358 kts | 195° |
| 2026-05-01 12:17 | 67.35110 | 24.37569 | 17789 ft | 368 kts | 189° |
| 2026-05-01 12:17 | 67.32543 | 24.37381 | 18402 ft | 371 kts | 189° |
| 2026-05-01 12:17 | 67.29950 | 24.37191 | 18951 ft | 375 kts | 189° |
| 2026-05-01 12:17 | 67.27366 | 24.37007 | 19516 ft | 378 kts | 189° |
| 2026-05-01 12:18 | 67.24725 | 24.36813 | 20080 ft | 381 kts | 190° |
| 2026-05-01 12:18 | 67.22065 | 24.36613 | 20632 ft | 385 kts | 190° |
| 2026-05-01 12:18 | 67.19376 | 24.36409 | 21155 ft | 388 kts | 190° |
| 2026-05-01 12:18 | 67.16663 | 24.36196 | 21693 ft | 392 kts | 190° |
| 2026-05-01 12:19 | 67.13922 | 24.35991 | 22268 ft | 396 kts | 190° |
| 2026-05-01 12:19 | 67.11156 | 24.35790 | 22827 ft | 399 kts | 191° |
| 2026-05-01 12:19 | 67.08374 | 24.35584 | 23383 ft | 402 kts | 191° |
| 2026-05-01 12:19 | 67.05571 | 24.35375 | 23840 ft | 405 kts | 191° |
| 2026-05-01 12:20 | 67.02751 | 24.35166 | 24297 ft | 407 kts | 191° |
| 2026-05-01 12:20 | 66.99915 | 24.34966 | 24695 ft | 409 kts | 192° |
| 2026-05-01 12:20 | 66.97050 | 24.34765 | 25130 ft | 412 kts | 192° |
| 2026-05-01 12:20 | 66.94179 | 24.34562 | 25565 ft | 414 kts | 192° |
| 2026-05-01 12:21 | 66.91298 | 24.34354 | 25993 ft | 416 kts | 192° |
| 2026-05-01 12:21 | 66.88395 | 24.34137 | 26416 ft | 418 kts | 192° |
| 2026-05-01 12:21 | 66.85482 | 24.33919 | 26814 ft | 420 kts | 192° |
| 2026-05-01 12:21 | 66.82549 | 24.33700 | 27215 ft | 422 kts | 192° |
| 2026-05-01 12:22 | 66.79605 | 24.33486 | 27618 ft | 425 kts | 192° |
| 2026-05-01 12:22 | 66.76645 | 24.33275 | 28005 ft | 427 kts | 192° |
| 2026-05-01 12:22 | 66.73663 | 24.33058 | 28389 ft | 429 kts | 193° |
| 2026-05-01 12:22 | 66.70677 | 24.32842 | 28760 ft | 431 kts | 193° |
| 2026-05-01 12:23 | 66.67667 | 24.32623 | 29097 ft | 434 kts | 193° |
| 2026-05-01 12:23 | 66.64640 | 24.32409 | 29392 ft | 436 kts | 193° |
| 2026-05-01 12:23 | 66.61610 | 24.32206 | 29791 ft | 436 kts | 193° |
| 2026-05-01 12:23 | 66.58565 | 24.32000 | 30060 ft | 438 kts | 193° |
| 2026-05-01 12:24 | 66.55515 | 24.31786 | 30349 ft | 440 kts | 193° |
| 2026-05-01 12:24 | 66.52488 | 24.31561 | 30607 ft | 442 kts | 193° |
| 2026-05-01 12:24 | 66.49405 | 24.31333 | 30876 ft | 443 kts | 192° |
| 2026-05-01 12:24 | 66.46318 | 24.31112 | 31138 ft | 445 kts | 192° |
| 2026-05-01 12:25 | 66.43218 | 24.30896 | 31398 ft | 446 kts | 192° |
| 2026-05-01 12:25 | 66.37009 | 24.30479 | 32061 ft | 445 kts | 192° |
| 2026-05-01 12:25 | 66.33907 | 24.30270 | 32328 ft | 446 kts | 192° |
| 2026-05-01 12:26 | 66.30793 | 24.30054 | 32634 ft | 447 kts | 192° |
| 2026-05-01 12:26 | 66.24571 | 24.29621 | 33213 ft | 447 kts | 192° |
| 2026-05-01 12:26 | 66.21460 | 24.29406 | 33548 ft | 447 kts | 191° |
| 2026-05-01 12:27 | 66.18349 | 24.29194 | 33895 ft | 447 kts | 191° |
| 2026-05-01 12:27 | 66.12135 | 24.28771 | 34432 ft | 446 kts | 191° |
| 2026-05-01 12:28 | 66.05952 | 24.28340 | 34867 ft | 448 kts | 191° |
| 2026-05-01 12:28 | 66.02858 | 24.28129 | 34910 ft | 442 kts | 191° |
| 2026-05-01 12:29 | 65.93694 | 24.27513 | 34926 ft | 437 kts | 191° |
| 2026-05-01 12:29 | 65.84576 | 24.26888 | 34942 ft | 437 kts | 191° |
| 2026-05-01 12:30 | 65.75458 | 24.26280 | 34941 ft | 437 kts | 191° |
| 2026-05-01 12:31 | 65.69378 | 24.25881 | 34948 ft | 437 kts | 191° |
| 2026-05-01 12:31 | 65.63299 | 24.25475 | 34946 ft | 437 kts | 191° |
| 2026-05-01 12:32 | 65.57225 | 24.25079 | 34922 ft | 437 kts | 191° |
| 2026-05-01 12:32 | 65.48074 | 24.24489 | 34953 ft | 440 kts | 190° |
| 2026-05-01 12:33 | 65.41952 | 24.24091 | 34962 ft | 440 kts | 190° |
| 2026-05-01 12:33 | 65.35829 | 24.23693 | 34963 ft | 440 kts | 190° |
| 2026-05-01 12:34 | 65.29746 | 24.23307 | 34967 ft | 440 kts | 190° |
| 2026-05-01 12:34 | 65.23625 | 24.22918 | 34937 ft | 440 kts | 189° |
| 2026-05-01 12:35 | 65.17509 | 24.22517 | 34963 ft | 440 kts | 190° |
| 2026-05-01 12:35 | 65.11351 | 24.23130 | 34968 ft | 450 kts | 179° |
| 2026-05-01 12:36 | 65.05147 | 24.25286 | 34980 ft | 450 kts | 179° |
| 2026-05-01 12:36 | 64.98944 | 24.27410 | 34983 ft | 450 kts | 179° |
| 2026-05-01 12:37 | 64.92737 | 24.29510 | 34995 ft | 450 kts | 179° |
| 2026-05-01 12:37 | 64.86526 | 24.31594 | 34975 ft | 451 kts | 179° |
| 2026-05-01 12:38 | 64.80309 | 24.33707 | 34983 ft | 451 kts | 179° |
| 2026-05-01 12:38 | 64.74139 | 24.35803 | 35000 ft | 451 kts | 179° |
| 2026-05-01 12:39 | 64.67888 | 24.37882 | 35014 ft | 451 kts | 179° |
| 2026-05-01 12:39 | 64.61715 | 24.39937 | 35020 ft | 451 kts | 179° |
| 2026-05-01 12:40 | 64.55508 | 24.42002 | 35021 ft | 450 kts | 179° |
| 2026-05-01 12:40 | 64.49305 | 24.44052 | 35001 ft | 450 kts | 179° |
| 2026-05-01 12:41 | 64.43095 | 24.46079 | 35017 ft | 450 kts | 179° |
| 2026-05-01 12:41 | 64.36896 | 24.48087 | 35019 ft | 449 kts | 179° |
| 2026-05-01 12:42 | 64.30702 | 24.50101 | 35027 ft | 449 kts | 179° |
| 2026-05-01 12:42 | 64.24499 | 24.52116 | 35003 ft | 449 kts | 179° |
| 2026-05-01 12:43 | 64.18313 | 24.54114 | 34973 ft | 449 kts | 178° |
| 2026-05-01 12:43 | 64.12161 | 24.56090 | 35016 ft | 449 kts | 178° |
| 2026-05-01 12:44 | 64.05967 | 24.58071 | 35024 ft | 449 kts | 178° |
| 2026-05-01 12:45 | 63.93593 | 24.61994 | 35027 ft | 449 kts | 178° |
| 2026-05-01 12:45 | 63.87404 | 24.63934 | 35032 ft | 449 kts | 179° |
| 2026-05-01 12:46 | 63.81217 | 24.65883 | 34994 ft | 448 kts | 178° |
| 2026-05-01 12:46 | 63.75031 | 24.67812 | 35007 ft | 448 kts | 178° |
| 2026-05-01 12:47 | 63.68844 | 24.69732 | 35017 ft | 449 kts | 178° |
| 2026-05-01 12:47 | 63.62656 | 24.71658 | 35027 ft | 449 kts | 178° |